sensor_id;sensor_type;location;lat;lon;timestamp;P1;durP1;ratioP1;P2;durP2;ratioP2
57023;SDS011;42916;54.346;18.562;2023-04-12T00:02:17;5.30;;;3.80;;
57023;SDS011;42916;54.346;18.562;2023-04-12T00:04:44;6.10;;;3.40;;
57023;SDS011;42916;54.346;18.562;2023-04-12T00:07:11;4.60;;;3.40;;
57023;SDS011;42916;54.346;18.562;2023-04-12T00:09:37;4.10;;;3.20;;
57023;SDS011;42916;54.346;18.562;2023-04-12T00:12:04;5.30;;;3.50;;
57023;SDS011;42916;54.346;18.562;2023-04-12T00:14:32;5.70;;;3.70;;
57023;SDS011;42916;54.346;18.562;2023-04-12T00:16:58;4.80;;;3.70;;
57023;SDS011;42916;54.346;18.562;2023-04-12T00:19:25;6.50;;;4.10;;
57023;SDS011;42916;54.346;18.562;2023-04-12T00:21:53;6.80;;;4.00;;
57023;SDS011;42916;54.346;18.562;2023-04-12T00:24:19;6.20;;;4.20;;
57023;SDS011;42916;54.346;18.562;2023-04-12T00:26:46;6.30;;;4.30;;
57023;SDS011;42916;54.346;18.562;2023-04-12T00:29:14;5.40;;;4.00;;
57023;SDS011;42916;54.346;18.562;2023-04-12T00:31:41;6.90;;;4.00;;
57023;SDS011;42916;54.346;18.562;2023-04-12T00:34:08;5.70;;;4.10;;
57023;SDS011;42916;54.346;18.562;2023-04-12T00:36:34;6.30;;;4.30;;
57023;SDS011;42916;54.346;18.562;2023-04-12T00:39:02;6.20;;;4.00;;
57023;SDS011;42916;54.346;18.562;2023-04-12T00:41:29;7.30;;;4.10;;
57023;SDS011;42916;54.346;18.562;2023-04-12T00:43:56;6.80;;;4.90;;
57023;SDS011;42916;54.346;18.562;2023-04-12T00:46:22;6.30;;;4.60;;
57023;SDS011;42916;54.346;18.562;2023-04-12T00:48:51;8.00;;;5.30;;
57023;SDS011;42916;54.346;18.562;2023-04-12T00:51:18;7.40;;;4.80;;
57023;SDS011;42916;54.346;18.562;2023-04-12T00:53:47;7.00;;;4.90;;
57023;SDS011;42916;54.346;18.562;2023-04-12T00:56:14;8.10;;;4.80;;
57023;SDS011;42916;54.346;18.562;2023-04-12T00:58:41;8.20;;;4.50;;
57023;SDS011;42916;54.346;18.562;2023-04-12T01:01:08;6.00;;;4.00;;
57023;SDS011;42916;54.346;18.562;2023-04-12T01:03:35;5.80;;;4.20;;
57023;SDS011;42916;54.346;18.562;2023-04-12T01:09:14;6.50;;;4.40;;
57023;SDS011;42916;54.346;18.562;2023-04-12T01:11:57;6.20;;;4.10;;
57023;SDS011;42916;54.346;18.562;2023-04-12T01:14:50;5.20;;;4.10;;
57023;SDS011;42916;54.346;18.562;2023-04-12T01:17:25;4.70;;;4.10;;
57023;SDS011;42916;54.346;18.562;2023-04-12T01:20:02;6.80;;;4.00;;
57023;SDS011;42916;54.346;18.562;2023-04-12T01:22:52;6.80;;;4.70;;
57023;SDS011;42916;54.346;18.562;2023-04-12T01:28:31;6.10;;;4.10;;
57023;SDS011;42916;54.346;18.562;2023-04-12T01:31:00;6.90;;;4.70;;
57023;SDS011;42916;54.346;18.562;2023-04-12T01:33:29;6.80;;;4.40;;
57023;SDS011;42916;54.346;18.562;2023-04-12T01:35:59;6.00;;;4.10;;
57023;SDS011;42916;54.346;18.562;2023-04-12T01:38:30;6.30;;;4.00;;
57023;SDS011;42916;54.346;18.562;2023-04-12T01:40:58;6.60;;;4.40;;
57023;SDS011;42916;54.346;18.562;2023-04-12T01:43:25;8.40;;;4.70;;
57023;SDS011;42916;54.346;18.562;2023-04-12T01:45:54;8.20;;;4.90;;
57023;SDS011;42916;54.346;18.562;2023-04-12T01:48:21;7.80;;;4.20;;
57023;SDS011;42916;54.346;18.562;2023-04-12T01:53:44;7.00;;;4.20;;
57023;SDS011;42916;54.346;18.562;2023-04-12T01:56:27;6.20;;;4.20;;
57023;SDS011;42916;54.346;18.562;2023-04-12T01:58:59;6.40;;;4.40;;
57023;SDS011;42916;54.346;18.562;2023-04-12T02:01:27;7.80;;;4.40;;
57023;SDS011;42916;54.346;18.562;2023-04-12T02:03:56;6.50;;;4.40;;
57023;SDS011;42916;54.346;18.562;2023-04-12T02:06:27;7.30;;;5.00;;
57023;SDS011;42916;54.346;18.562;2023-04-12T02:09:01;8.40;;;5.30;;
57023;SDS011;42916;54.346;18.562;2023-04-12T02:11:33;6.80;;;5.10;;
57023;SDS011;42916;54.346;18.562;2023-04-12T02:14:00;7.80;;;5.10;;
57023;SDS011;42916;54.346;18.562;2023-04-12T02:16:26;7.00;;;4.40;;
57023;SDS011;42916;54.346;18.562;2023-04-12T02:18:54;6.60;;;4.60;;
57023;SDS011;42916;54.346;18.562;2023-04-12T02:21:22;7.00;;;4.70;;
57023;SDS011;42916;54.346;18.562;2023-04-12T02:23:49;8.90;;;5.40;;
57023;SDS011;42916;54.346;18.562;2023-04-12T02:26:16;7.20;;;4.80;;
57023;SDS011;42916;54.346;18.562;2023-04-12T02:28:43;7.80;;;5.30;;
57023;SDS011;42916;54.346;18.562;2023-04-12T02:31:13;7.90;;;5.00;;
57023;SDS011;42916;54.346;18.562;2023-04-12T02:33:41;9.50;;;5.60;;
57023;SDS011;42916;54.346;18.562;2023-04-12T02:36:09;7.70;;;5.00;;
57023;SDS011;42916;54.346;18.562;2023-04-12T02:38:36;6.90;;;4.90;;
57023;SDS011;42916;54.346;18.562;2023-04-12T02:41:05;7.00;;;4.90;;
57023;SDS011;42916;54.346;18.562;2023-04-12T02:43:33;8.60;;;5.50;;
57023;SDS011;42916;54.346;18.562;2023-04-12T02:46:02;6.90;;;4.30;;
57023;SDS011;42916;54.346;18.562;2023-04-12T02:48:33;7.20;;;5.00;;
57023;SDS011;42916;54.346;18.562;2023-04-12T02:51:01;10.40;;;5.80;;
57023;SDS011;42916;54.346;18.562;2023-04-12T02:53:29;7.80;;;5.40;;
57023;SDS011;42916;54.346;18.562;2023-04-12T02:56:08;9.20;;;6.00;;
57023;SDS011;42916;54.346;18.562;2023-04-12T02:58:35;10.20;;;5.80;;
57023;SDS011;42916;54.346;18.562;2023-04-12T03:01:02;8.00;;;5.10;;
57023;SDS011;42916;54.346;18.562;2023-04-12T03:03:34;8.40;;;5.60;;
57023;SDS011;42916;54.346;18.562;2023-04-12T03:06:09;9.90;;;5.50;;
57023;SDS011;42916;54.346;18.562;2023-04-12T03:08:37;8.40;;;5.20;;
57023;SDS011;42916;54.346;18.562;2023-04-12T03:11:04;9.10;;;5.50;;
57023;SDS011;42916;54.346;18.562;2023-04-12T03:13:32;7.60;;;5.10;;
57023;SDS011;42916;54.346;18.562;2023-04-12T03:15:58;7.80;;;5.00;;
57023;SDS011;42916;54.346;18.562;2023-04-12T03:18:33;7.90;;;4.90;;
57023;SDS011;42916;54.346;18.562;2023-04-12T03:21:00;12.10;;;5.60;;
57023;SDS011;42916;54.346;18.562;2023-04-12T03:23:28;9.90;;;5.20;;
57023;SDS011;42916;54.346;18.562;2023-04-12T03:26:03;9.00;;;5.50;;
57023;SDS011;42916;54.346;18.562;2023-04-12T03:28:32;10.80;;;5.80;;
57023;SDS011;42916;54.346;18.562;2023-04-12T03:31:00;8.30;;;5.70;;
57023;SDS011;42916;54.346;18.562;2023-04-12T03:33:35;8.20;;;5.10;;
57023;SDS011;42916;54.346;18.562;2023-04-12T03:36:03;8.40;;;5.70;;
57023;SDS011;42916;54.346;18.562;2023-04-12T03:38:31;9.50;;;4.80;;
57023;SDS011;42916;54.346;18.562;2023-04-12T03:40:58;9.60;;;5.30;;
57023;SDS011;42916;54.346;18.562;2023-04-12T03:43:32;8.00;;;5.60;;
57023;SDS011;42916;54.346;18.562;2023-04-12T03:46:03;8.80;;;5.00;;
57023;SDS011;42916;54.346;18.562;2023-04-12T03:48:31;5.90;;;4.30;;
57023;SDS011;42916;54.346;18.562;2023-04-12T03:50:58;8.70;;;4.70;;
57023;SDS011;42916;54.346;18.562;2023-04-12T03:53:26;5.80;;;4.10;;
57023;SDS011;42916;54.346;18.562;2023-04-12T03:55:54;7.00;;;4.90;;
57023;SDS011;42916;54.346;18.562;2023-04-12T03:58:22;6.80;;;4.60;;
57023;SDS011;42916;54.346;18.562;2023-04-12T04:00:48;7.10;;;5.00;;
57023;SDS011;42916;54.346;18.562;2023-04-12T04:03:16;7.50;;;4.20;;
57023;SDS011;42916;54.346;18.562;2023-04-12T04:06:01;8.10;;;4.90;;
57023;SDS011;42916;54.346;18.562;2023-04-12T04:08:30;6.20;;;4.00;;
57023;SDS011;42916;54.346;18.562;2023-04-12T04:10:58;6.80;;;4.60;;
57023;SDS011;42916;54.346;18.562;2023-04-12T04:13:30;6.70;;;4.30;;
57023;SDS011;42916;54.346;18.562;2023-04-12T04:16:03;7.30;;;4.00;;
57023;SDS011;42916;54.346;18.562;2023-04-12T04:18:32;7.20;;;4.60;;
57023;SDS011;42916;54.346;18.562;2023-04-12T04:21:01;9.60;;;5.00;;
57023;SDS011;42916;54.346;18.562;2023-04-12T04:23:30;7.40;;;4.80;;
57023;SDS011;42916;54.346;18.562;2023-04-12T04:26:07;8.20;;;4.90;;
57023;SDS011;42916;54.346;18.562;2023-04-12T04:28:41;8.30;;;5.20;;
57023;SDS011;42916;54.346;18.562;2023-04-12T04:31:11;8.10;;;4.80;;
57023;SDS011;42916;54.346;18.562;2023-04-12T04:33:39;7.60;;;4.70;;
57023;SDS011;42916;54.346;18.562;2023-04-12T04:36:07;7.50;;;4.60;;
57023;SDS011;42916;54.346;18.562;2023-04-12T04:38:36;7.40;;;4.70;;
57023;SDS011;42916;54.346;18.562;2023-04-12T04:41:07;9.90;;;4.90;;
57023;SDS011;42916;54.346;18.562;2023-04-12T04:43:49;9.90;;;5.20;;
57023;SDS011;42916;54.346;18.562;2023-04-12T04:46:16;8.20;;;5.10;;
57023;SDS011;42916;54.346;18.562;2023-04-12T04:48:47;8.90;;;5.90;;
57023;SDS011;42916;54.346;18.562;2023-04-12T04:51:14;8.90;;;5.40;;
57023;SDS011;42916;54.346;18.562;2023-04-12T04:53:41;9.90;;;5.30;;
57023;SDS011;42916;54.346;18.562;2023-04-12T04:56:09;8.20;;;4.80;;
57023;SDS011;42916;54.346;18.562;2023-04-12T04:58:37;8.60;;;5.50;;
57023;SDS011;42916;54.346;18.562;2023-04-12T05:01:05;8.80;;;4.90;;
57023;SDS011;42916;54.346;18.562;2023-04-12T05:03:33;8.30;;;5.40;;
57023;SDS011;42916;54.346;18.562;2023-04-12T05:06:00;6.90;;;5.20;;
57023;SDS011;42916;54.346;18.562;2023-04-12T05:08:30;9.50;;;6.10;;
57023;SDS011;42916;54.346;18.562;2023-04-12T05:10:56;9.10;;;5.70;;
57023;SDS011;42916;54.346;18.562;2023-04-12T05:13:26;6.70;;;4.90;;
57023;SDS011;42916;54.346;18.562;2023-04-12T05:15:53;8.70;;;5.20;;
57023;SDS011;42916;54.346;18.562;2023-04-12T05:18:20;8.20;;;5.10;;
57023;SDS011;42916;54.346;18.562;2023-04-12T05:20:48;8.40;;;5.20;;
57023;SDS011;42916;54.346;18.562;2023-04-12T05:23:14;11.90;;;5.50;;
57023;SDS011;42916;54.346;18.562;2023-04-12T05:25:45;8.70;;;5.10;;
57023;SDS011;42916;54.346;18.562;2023-04-12T05:28:14;6.60;;;5.00;;
57023;SDS011;42916;54.346;18.562;2023-04-12T05:30:45;8.50;;;5.30;;
57023;SDS011;42916;54.346;18.562;2023-04-12T05:33:15;10.60;;;6.40;;
57023;SDS011;42916;54.346;18.562;2023-04-12T05:35:44;10.20;;;6.40;;
57023;SDS011;42916;54.346;18.562;2023-04-12T05:38:11;11.40;;;6.50;;
57023;SDS011;42916;54.346;18.562;2023-04-12T05:40:38;10.90;;;6.30;;
57023;SDS011;42916;54.346;18.562;2023-04-12T05:43:07;9.90;;;6.30;;
57023;SDS011;42916;54.346;18.562;2023-04-12T05:45:38;13.00;;;7.00;;
57023;SDS011;42916;54.346;18.562;2023-04-12T05:48:06;10.40;;;6.90;;
57023;SDS011;42916;54.346;18.562;2023-04-12T05:50:34;15.20;;;7.30;;
57023;SDS011;42916;54.346;18.562;2023-04-12T05:53:01;11.70;;;7.20;;
57023;SDS011;42916;54.346;18.562;2023-04-12T05:55:30;10.70;;;7.00;;
57023;SDS011;42916;54.346;18.562;2023-04-12T05:57:57;11.20;;;7.10;;
57023;SDS011;42916;54.346;18.562;2023-04-12T06:00:25;11.30;;;6.40;;
57023;SDS011;42916;54.346;18.562;2023-04-12T06:02:51;10.10;;;6.60;;
57023;SDS011;42916;54.346;18.562;2023-04-12T06:05:18;10.50;;;6.60;;
57023;SDS011;42916;54.346;18.562;2023-04-12T06:07:45;9.70;;;6.80;;
57023;SDS011;42916;54.346;18.562;2023-04-12T06:10:14;9.10;;;6.20;;
57023;SDS011;42916;54.346;18.562;2023-04-12T06:12:42;11.70;;;7.10;;
57023;SDS011;42916;54.346;18.562;2023-04-12T06:15:09;11.30;;;6.60;;
57023;SDS011;42916;54.346;18.562;2023-04-12T06:17:36;9.20;;;6.20;;
57023;SDS011;42916;54.346;18.562;2023-04-12T06:20:04;9.50;;;6.20;;
57023;SDS011;42916;54.346;18.562;2023-04-12T06:22:34;8.40;;;6.10;;
57023;SDS011;42916;54.346;18.562;2023-04-12T06:25:01;8.00;;;6.10;;
57023;SDS011;42916;54.346;18.562;2023-04-12T06:27:29;10.40;;;5.70;;
57023;SDS011;42916;54.346;18.562;2023-04-12T06:29:56;8.80;;;5.00;;
57023;SDS011;42916;54.346;18.562;2023-04-12T06:32:24;8.50;;;5.60;;
57023;SDS011;42916;54.346;18.562;2023-04-12T06:34:52;7.90;;;5.20;;
57023;SDS011;42916;54.346;18.562;2023-04-12T06:37:19;8.00;;;4.90;;
57023;SDS011;42916;54.346;18.562;2023-04-12T06:39:46;8.40;;;5.10;;
57023;SDS011;42916;54.346;18.562;2023-04-12T06:42:13;9.70;;;5.20;;
57023;SDS011;42916;54.346;18.562;2023-04-12T06:44:41;8.20;;;4.70;;
57023;SDS011;42916;54.346;18.562;2023-04-12T06:47:07;10.50;;;4.50;;
57023;SDS011;42916;54.346;18.562;2023-04-12T06:49:34;7.00;;;4.50;;
57023;SDS011;42916;54.346;18.562;2023-04-12T06:52:01;7.60;;;4.70;;
57023;SDS011;42916;54.346;18.562;2023-04-12T06:54:28;8.70;;;5.60;;
57023;SDS011;42916;54.346;18.562;2023-04-12T06:56:54;6.80;;;4.80;;
57023;SDS011;42916;54.346;18.562;2023-04-12T06:59:22;8.20;;;5.00;;
57023;SDS011;42916;54.346;18.562;2023-04-12T07:01:49;9.20;;;5.20;;
57023;SDS011;42916;54.346;18.562;2023-04-12T07:04:16;7.30;;;4.80;;
57023;SDS011;42916;54.346;18.562;2023-04-12T07:06:43;8.40;;;5.40;;
57023;SDS011;42916;54.346;18.562;2023-04-12T07:09:09;8.40;;;5.10;;
57023;SDS011;42916;54.346;18.562;2023-04-12T07:11:36;7.50;;;4.80;;
57023;SDS011;42916;54.346;18.562;2023-04-12T07:14:03;8.50;;;4.50;;
57023;SDS011;42916;54.346;18.562;2023-04-12T07:16:30;6.70;;;4.10;;
57023;SDS011;42916;54.346;18.562;2023-04-12T07:18:58;6.80;;;3.90;;
57023;SDS011;42916;54.346;18.562;2023-04-12T07:21:25;6.00;;;4.10;;
57023;SDS011;42916;54.346;18.562;2023-04-12T07:23:52;6.70;;;4.20;;
57023;SDS011;42916;54.346;18.562;2023-04-12T07:26:19;6.30;;;4.10;;
57023;SDS011;42916;54.346;18.562;2023-04-12T07:28:47;6.90;;;4.80;;
57023;SDS011;42916;54.346;18.562;2023-04-12T07:31:13;8.20;;;5.20;;
57023;SDS011;42916;54.346;18.562;2023-04-12T07:33:40;9.10;;;5.30;;
57023;SDS011;42916;54.346;18.562;2023-04-12T07:36:07;8.90;;;5.00;;
57023;SDS011;42916;54.346;18.562;2023-04-12T07:38:34;8.20;;;5.10;;
57023;SDS011;42916;54.346;18.562;2023-04-12T07:41:01;8.70;;;5.30;;
57023;SDS011;42916;54.346;18.562;2023-04-12T07:43:27;11.50;;;6.20;;
57023;SDS011;42916;54.346;18.562;2023-04-12T07:45:54;9.70;;;5.80;;
57023;SDS011;42916;54.346;18.562;2023-04-12T07:48:21;9.10;;;6.00;;
57023;SDS011;42916;54.346;18.562;2023-04-12T07:50:48;9.10;;;5.80;;
57023;SDS011;42916;54.346;18.562;2023-04-12T07:53:19;8.40;;;5.70;;
57023;SDS011;42916;54.346;18.562;2023-04-12T07:55:48;9.10;;;6.30;;
57023;SDS011;42916;54.346;18.562;2023-04-12T07:58:16;12.50;;;7.00;;
57023;SDS011;42916;54.346;18.562;2023-04-12T08:00:44;10.50;;;6.70;;
57023;SDS011;42916;54.346;18.562;2023-04-12T08:03:12;9.70;;;6.00;;
57023;SDS011;42916;54.346;18.562;2023-04-12T08:05:42;10.20;;;6.90;;
57023;SDS011;42916;54.346;18.562;2023-04-12T08:08:09;10.50;;;6.70;;
57023;SDS011;42916;54.346;18.562;2023-04-12T08:10:38;10.50;;;6.00;;
57023;SDS011;42916;54.346;18.562;2023-04-12T08:13:06;8.50;;;6.00;;
57023;SDS011;42916;54.346;18.562;2023-04-12T08:15:33;9.30;;;5.80;;
57023;SDS011;42916;54.346;18.562;2023-04-12T08:18:00;8.70;;;6.30;;
57023;SDS011;42916;54.346;18.562;2023-04-12T08:20:28;8.20;;;4.90;;
57023;SDS011;42916;54.346;18.562;2023-04-12T08:22:55;7.70;;;4.90;;
57023;SDS011;42916;54.346;18.562;2023-04-12T08:25:22;6.40;;;4.40;;
57023;SDS011;42916;54.346;18.562;2023-04-12T08:27:50;8.80;;;4.70;;
57023;SDS011;42916;54.346;18.562;2023-04-12T08:30:18;6.90;;;4.90;;
57023;SDS011;42916;54.346;18.562;2023-04-12T08:32:45;6.10;;;4.30;;
57023;SDS011;42916;54.346;18.562;2023-04-12T08:35:13;7.40;;;5.00;;
57023;SDS011;42916;54.346;18.562;2023-04-12T08:37:39;7.20;;;4.90;;
57023;SDS011;42916;54.346;18.562;2023-04-12T08:40:07;8.10;;;4.80;;
57023;SDS011;42916;54.346;18.562;2023-04-12T08:42:34;6.90;;;4.70;;
57023;SDS011;42916;54.346;18.562;2023-04-12T08:45:06;6.80;;;4.80;;
57023;SDS011;42916;54.346;18.562;2023-04-12T08:47:38;11.30;;;5.90;;
57023;SDS011;42916;54.346;18.562;2023-04-12T08:50:07;8.80;;;5.10;;
57023;SDS011;42916;54.346;18.562;2023-04-12T08:55:05;9.10;;;5.80;;
57023;SDS011;42916;54.346;18.562;2023-04-12T08:57:34;9.90;;;6.10;;
57023;SDS011;42916;54.346;18.562;2023-04-12T09:00:02;11.10;;;6.40;;
57023;SDS011;42916;54.346;18.562;2023-04-12T09:02:36;9.40;;;6.60;;
57023;SDS011;42916;54.346;18.562;2023-04-12T09:05:04;12.10;;;6.50;;
57023;SDS011;42916;54.346;18.562;2023-04-12T09:07:31;9.90;;;6.20;;
57023;SDS011;42916;54.346;18.562;2023-04-12T09:09:58;9.90;;;6.00;;
57023;SDS011;42916;54.346;18.562;2023-04-12T09:12:25;12.60;;;6.50;;
57023;SDS011;42916;54.346;18.562;2023-04-12T09:17:38;9.40;;;6.40;;
57023;SDS011;42916;54.346;18.562;2023-04-12T09:22:43;10.70;;;5.50;;
57023;SDS011;42916;54.346;18.562;2023-04-12T09:25:11;13.30;;;6.00;;
57023;SDS011;42916;54.346;18.562;2023-04-12T09:27:48;14.00;;;7.00;;
57023;SDS011;42916;54.346;18.562;2023-04-12T09:30:17;12.70;;;6.80;;
57023;SDS011;42916;54.346;18.562;2023-04-12T09:32:44;11.70;;;6.30;;
57023;SDS011;42916;54.346;18.562;2023-04-12T09:35:12;10.50;;;5.90;;
57023;SDS011;42916;54.346;18.562;2023-04-12T09:37:38;8.20;;;5.50;;
57023;SDS011;42916;54.346;18.562;2023-04-12T09:40:07;9.70;;;6.60;;
57023;SDS011;42916;54.346;18.562;2023-04-12T09:47:48;12.10;;;6.40;;
57023;SDS011;42916;54.346;18.562;2023-04-12T09:50:28;8.20;;;5.90;;
57023;SDS011;42916;54.346;18.562;2023-04-12T09:53:00;10.90;;;6.60;;
57023;SDS011;42916;54.346;18.562;2023-04-12T09:55:29;8.90;;;6.00;;
57023;SDS011;42916;54.346;18.562;2023-04-12T09:58:00;10.00;;;6.60;;
57023;SDS011;42916;54.346;18.562;2023-04-12T10:00:29;7.40;;;5.20;;
57023;SDS011;42916;54.346;18.562;2023-04-12T10:02:59;9.10;;;5.80;;
57023;SDS011;42916;54.346;18.562;2023-04-12T10:05:27;8.50;;;5.50;;
57023;SDS011;42916;54.346;18.562;2023-04-12T10:07:53;9.70;;;6.40;;
57023;SDS011;42916;54.346;18.562;2023-04-12T10:10:22;8.90;;;5.40;;
57023;SDS011;42916;54.346;18.562;2023-04-12T10:12:49;7.90;;;5.50;;
57023;SDS011;42916;54.346;18.562;2023-04-12T10:15:16;8.80;;;5.70;;
57023;SDS011;42916;54.346;18.562;2023-04-12T10:17:44;9.50;;;6.00;;
57023;SDS011;42916;54.346;18.562;2023-04-12T10:20:13;10.00;;;6.40;;
57023;SDS011;42916;54.346;18.562;2023-04-12T10:22:41;15.70;;;10.10;;
57023;SDS011;42916;54.346;18.562;2023-04-12T10:25:15;12.80;;;7.20;;
57023;SDS011;42916;54.346;18.562;2023-04-12T10:27:47;11.00;;;7.10;;
57023;SDS011;42916;54.346;18.562;2023-04-12T10:32:49;9.80;;;6.10;;
57023;SDS011;42916;54.346;18.562;2023-04-12T10:38:20;12.20;;;7.40;;
57023;SDS011;42916;54.346;18.562;2023-04-12T10:41:10;9.60;;;7.30;;
57023;SDS011;42916;54.346;18.562;2023-04-12T10:47:02;11.60;;;8.20;;
57023;SDS011;42916;54.346;18.562;2023-04-12T10:49:06;10.50;;;7.60;;
57023;SDS011;42916;54.346;18.562;2023-04-12T10:51:34;13.30;;;9.20;;
57023;SDS011;42916;54.346;18.562;2023-04-12T10:56:44;16.80;;;10.00;;
57023;SDS011;42916;54.346;18.562;2023-04-12T10:59:24;21.60;;;12.20;;
57023;SDS011;42916;54.346;18.562;2023-04-12T11:04:29;23.20;;;12.80;;
57023;SDS011;42916;54.346;18.562;2023-04-12T11:07:09;21.00;;;13.10;;
57023;SDS011;42916;54.346;18.562;2023-04-12T11:10:00;19.40;;;12.20;;
57023;SDS011;42916;54.346;18.562;2023-04-12T11:12:37;20.60;;;12.40;;
57023;SDS011;42916;54.346;18.562;2023-04-12T11:15:04;21.20;;;11.30;;
57023;SDS011;42916;54.346;18.562;2023-04-12T11:17:42;21.80;;;12.10;;
57023;SDS011;42916;54.346;18.562;2023-04-12T11:20:19;18.70;;;10.40;;
57023;SDS011;42916;54.346;18.562;2023-04-12T11:22:46;17.70;;;10.00;;
57023;SDS011;42916;54.346;18.562;2023-04-12T11:25:16;18.90;;;10.60;;
57023;SDS011;42916;54.346;18.562;2023-04-12T11:27:49;16.90;;;10.20;;
57023;SDS011;42916;54.346;18.562;2023-04-12T11:30:17;18.00;;;10.30;;
57023;SDS011;42916;54.346;18.562;2023-04-12T11:32:45;16.20;;;10.70;;
57023;SDS011;42916;54.346;18.562;2023-04-12T11:35:15;16.10;;;10.30;;
57023;SDS011;42916;54.346;18.562;2023-04-12T11:37:45;15.10;;;10.10;;
57023;SDS011;42916;54.346;18.562;2023-04-12T11:40:12;18.10;;;10.20;;
57023;SDS011;42916;54.346;18.562;2023-04-12T11:42:40;15.60;;;9.60;;
57023;SDS011;42916;54.346;18.562;2023-04-12T11:45:07;15.70;;;9.50;;
57023;SDS011;42916;54.346;18.562;2023-04-12T11:47:40;14.80;;;10.30;;
57023;SDS011;42916;54.346;18.562;2023-04-12T11:50:08;15.80;;;10.30;;
57023;SDS011;42916;54.346;18.562;2023-04-12T11:52:36;16.60;;;10.70;;
57023;SDS011;42916;54.346;18.562;2023-04-12T11:55:04;15.00;;;10.00;;
57023;SDS011;42916;54.346;18.562;2023-04-12T11:57:37;17.30;;;10.30;;
57023;SDS011;42916;54.346;18.562;2023-04-12T12:00:04;16.90;;;10.30;;
57023;SDS011;42916;54.346;18.562;2023-04-12T12:02:38;16.80;;;10.40;;
57023;SDS011;42916;54.346;18.562;2023-04-12T12:05:05;19.00;;;12.20;;
57023;SDS011;42916;54.346;18.562;2023-04-12T12:07:33;17.60;;;12.40;;
57023;SDS011;42916;54.346;18.562;2023-04-12T12:10:01;18.60;;;11.70;;
57023;SDS011;42916;54.346;18.562;2023-04-12T12:12:27;17.90;;;12.20;;
57023;SDS011;42916;54.346;18.562;2023-04-12T12:14:57;16.70;;;11.50;;
57023;SDS011;42916;54.346;18.562;2023-04-12T12:17:25;15.60;;;9.90;;
57023;SDS011;42916;54.346;18.562;2023-04-12T12:19:55;16.40;;;10.60;;
57023;SDS011;42916;54.346;18.562;2023-04-12T12:22:22;16.50;;;10.70;;
57023;SDS011;42916;54.346;18.562;2023-04-12T12:24:56;17.90;;;11.10;;
57023;SDS011;42916;54.346;18.562;2023-04-12T12:27:34;19.70;;;11.70;;
57023;SDS011;42916;54.346;18.562;2023-04-12T12:30:05;16.50;;;11.10;;
57023;SDS011;42916;54.346;18.562;2023-04-12T12:32:33;16.20;;;11.10;;
57023;SDS011;42916;54.346;18.562;2023-04-12T12:35:06;15.80;;;10.20;;
57023;SDS011;42916;54.346;18.562;2023-04-12T12:37:37;18.80;;;11.40;;
57023;SDS011;42916;54.346;18.562;2023-04-12T12:40:14;14.90;;;10.10;;
57023;SDS011;42916;54.346;18.562;2023-04-12T12:42:49;16.30;;;10.30;;
57023;SDS011;42916;54.346;18.562;2023-04-12T12:45:18;16.30;;;10.70;;
57023;SDS011;42916;54.346;18.562;2023-04-12T12:48:02;14.60;;;11.10;;
57023;SDS011;42916;54.346;18.562;2023-04-12T12:50:30;16.40;;;10.60;;
57023;SDS011;42916;54.346;18.562;2023-04-12T12:52:59;18.10;;;12.10;;
57023;SDS011;42916;54.346;18.562;2023-04-12T12:55:28;18.90;;;12.10;;
57023;SDS011;42916;54.346;18.562;2023-04-12T12:57:56;19.60;;;12.70;;
57023;SDS011;42916;54.346;18.562;2023-04-12T13:00:25;20.40;;;12.20;;
57023;SDS011;42916;54.346;18.562;2023-04-12T13:05:19;19.40;;;13.00;;
57023;SDS011;42916;54.346;18.562;2023-04-12T13:07:47;19.80;;;13.20;;
57023;SDS011;42916;54.346;18.562;2023-04-12T13:10:14;19.80;;;14.00;;
57023;SDS011;42916;54.346;18.562;2023-04-12T13:12:41;17.70;;;13.50;;
57023;SDS011;42916;54.346;18.562;2023-04-12T13:15:08;20.50;;;13.80;;
57023;SDS011;42916;54.346;18.562;2023-04-12T13:17:37;18.00;;;13.00;;
57023;SDS011;42916;54.346;18.562;2023-04-12T13:20:04;18.30;;;13.20;;
57023;SDS011;42916;54.346;18.562;2023-04-12T13:22:31;17.40;;;12.50;;
57023;SDS011;42916;54.346;18.562;2023-04-12T13:24:57;17.80;;;12.70;;
57023;SDS011;42916;54.346;18.562;2023-04-12T13:27:25;17.70;;;12.70;;
57023;SDS011;42916;54.346;18.562;2023-04-12T13:29:52;18.80;;;13.10;;
57023;SDS011;42916;54.346;18.562;2023-04-12T13:32:19;19.70;;;13.10;;
57023;SDS011;42916;54.346;18.562;2023-04-12T13:34:46;19.90;;;14.10;;
57023;SDS011;42916;54.346;18.562;2023-04-12T13:37:13;18.40;;;12.60;;
57023;SDS011;42916;54.346;18.562;2023-04-12T13:39:39;19.10;;;12.80;;
57023;SDS011;42916;54.346;18.562;2023-04-12T13:42:06;18.80;;;13.60;;
57023;SDS011;42916;54.346;18.562;2023-04-12T13:44:33;17.90;;;13.10;;
57023;SDS011;42916;54.346;18.562;2023-04-12T13:47:01;18.40;;;13.30;;
57023;SDS011;42916;54.346;18.562;2023-04-12T13:49:29;16.60;;;13.20;;
57023;SDS011;42916;54.346;18.562;2023-04-12T13:51:56;18.60;;;13.90;;
57023;SDS011;42916;54.346;18.562;2023-04-12T13:54:22;19.20;;;13.60;;
57023;SDS011;42916;54.346;18.562;2023-04-12T13:56:49;18.10;;;12.70;;
57023;SDS011;42916;54.346;18.562;2023-04-12T13:59:16;19.00;;;12.60;;
57023;SDS011;42916;54.346;18.562;2023-04-12T14:01:43;17.20;;;12.70;;
57023;SDS011;42916;54.346;18.562;2023-04-12T14:04:10;18.10;;;13.10;;
57023;SDS011;42916;54.346;18.562;2023-04-12T14:06:36;17.50;;;12.50;;
57023;SDS011;42916;54.346;18.562;2023-04-12T14:09:04;16.60;;;11.80;;
57023;SDS011;42916;54.346;18.562;2023-04-12T14:11:43;19.80;;;13.50;;
57023;SDS011;42916;54.346;18.562;2023-04-12T14:14:11;15.50;;;11.30;;
57023;SDS011;42916;54.346;18.562;2023-04-12T14:16:38;16.00;;;11.40;;
57023;SDS011;42916;54.346;18.562;2023-04-12T14:19:05;17.70;;;12.10;;
57023;SDS011;42916;54.346;18.562;2023-04-12T14:21:32;18.70;;;12.90;;
57023;SDS011;42916;54.346;18.562;2023-04-12T14:23:58;16.60;;;11.70;;
57023;SDS011;42916;54.346;18.562;2023-04-12T14:26:25;16.70;;;12.00;;
57023;SDS011;42916;54.346;18.562;2023-04-12T14:28:52;14.70;;;11.00;;
57023;SDS011;42916;54.346;18.562;2023-04-12T14:31:19;15.20;;;11.50;;
57023;SDS011;42916;54.346;18.562;2023-04-12T14:33:46;16.70;;;10.60;;
57023;SDS011;42916;54.346;18.562;2023-04-12T14:36:13;15.90;;;11.60;;
57023;SDS011;42916;54.346;18.562;2023-04-12T14:38:41;13.00;;;9.00;;
57023;SDS011;42916;54.346;18.562;2023-04-12T14:41:07;15.30;;;10.90;;
57023;SDS011;42916;54.346;18.562;2023-04-12T14:43:35;15.10;;;11.00;;
57023;SDS011;42916;54.346;18.562;2023-04-12T14:46:01;14.50;;;10.40;;
57023;SDS011;42916;54.346;18.562;2023-04-12T14:48:28;17.00;;;11.90;;
57023;SDS011;42916;54.346;18.562;2023-04-12T14:50:55;12.20;;;9.60;;
57023;SDS011;42916;54.346;18.562;2023-04-12T14:53:21;12.80;;;10.10;;
57023;SDS011;42916;54.346;18.562;2023-04-12T14:55:49;13.50;;;10.20;;
57023;SDS011;42916;54.346;18.562;2023-04-12T14:58:16;14.00;;;11.20;;
57023;SDS011;42916;54.346;18.562;2023-04-12T15:00:43;13.40;;;10.30;;
57023;SDS011;42916;54.346;18.562;2023-04-12T15:03:09;13.50;;;10.80;;
57023;SDS011;42916;54.346;18.562;2023-04-12T15:05:36;13.50;;;10.20;;
57023;SDS011;42916;54.346;18.562;2023-04-12T15:08:03;13.50;;;10.40;;
57023;SDS011;42916;54.346;18.562;2023-04-12T15:10:30;14.80;;;10.70;;
57023;SDS011;42916;54.346;18.562;2023-04-12T15:12:57;12.40;;;10.10;;
57023;SDS011;42916;54.346;18.562;2023-04-12T15:15:23;15.60;;;10.90;;